Time;durP1;ratioP1;P1;durP2;ratioP2;P2;SDS_P1;SDS_P2;PMS_P1;PMS_P2;Temp;Humidity;BMP_temperature;BMP_pressure;BME280_temperature;BME280_humidity;BME280_pressure;Samples;Min_cycle;Max_cycle;Signal;HPM_P1;HPM_P2
2021/10/30 00:01:21;;;;;;;4.80;3.35;;;13.50;99.90;;;;;;5012106;28;20045;-89
2021/10/30 00:03:47;;;;;;;4.90;3.28;;;13.50;99.90;;;;;;5015366;28;20032;-89
2021/10/30 00:06:12;;;;;;;6.00;3.40;;;13.50;99.90;;;;;;5037621;28;20382;-90
2021/10/30 00:08:38;;;;;;;6.22;3.10;;;13.50;99.90;;;;;;5037404;28;20021;-89
2021/10/30 00:11:04;;;;;;;3.95;3.08;;;13.50;99.90;;;;;;5020676;28;20036;-89
2021/10/30 00:13:29;;;;;;;4.45;3.25;;;13.50;99.90;;;;;;5035877;28;20021;-88
2021/10/30 00:15:57;;;;;;;4.90;3.20;;;13.40;99.90;;;;;;5002282;28;20112;-91
2021/10/30 00:18:22;;;;;;;7.97;3.40;;;13.40;99.90;;;;;;5001429;28;20022;-87
2021/10/30 00:20:48;;;;;;;5.78;3.88;;;13.40;99.90;;;;;;5020050;28;20033;-89
2021/10/30 00:23:32;;;;;;;5.45;4.00;;;13.50;99.90;;;;;;5004053;28;20025;-89
2021/10/30 00:25:58;;;;;;;5.85;3.70;;;13.50;99.90;;;;;;5032202;28;20432;-88
2021/10/30 00:28:24;;;;;;;5.20;3.45;;;13.40;99.90;;;;;;5004392;28;20025;-89
2021/10/30 00:30:49;;;;;;;5.00;3.20;;;13.40;99.90;;;;;;5001143;28;20040;-90
2021/10/30 00:33:15;;;;;;;5.05;3.33;;;13.40;99.90;;;;;;5004699;28;20049;-89
2021/10/30 00:35:41;;;;;;;5.82;3.50;;;13.40;99.90;;;;;;5020341;28;20036;-90
2021/10/30 00:38:06;;;;;;;5.60;3.15;;;13.40;99.90;;;;;;5020509;28;20487;-86
2021/10/30 00:40:32;;;;;;;5.22;3.63;;;13.40;99.90;;;;;;5009135;28;20060;-86
2021/10/30 00:42:58;;;;;;;5.40;3.78;;;13.40;99.90;;;;;;5050645;28;20021;-86
2021/10/30 00:45:23;;;;;;;6.63;3.45;;;13.30;99.90;;;;;;5052457;28;20017;-86
2021/10/30 00:47:49;;;;;;;4.93;3.72;;;13.30;99.90;;;;;;5019797;28;20021;-86
2021/10/30 00:50:16;;;;;;;7.07;4.13;;;13.30;99.90;;;;;;5036392;28;20059;-90
2021/10/30 00:52:42;;;;;;;5.88;3.80;;;13.30;99.90;;;;;;5032899;28;20014;-89
2021/10/30 00:55:10;;;;;;;5.00;3.70;;;13.30;99.90;;;;;;5036593;28;20039;-89
2021/10/30 00:57:40;;;;;;;5.30;3.78;;;13.30;99.90;;;;;;5052694;28;20075;-89
2021/10/30 01:00:09;;;;;;;5.90;4.27;;;13.30;99.90;;;;;;5036717;28;20029;-89
2021/10/30 01:02:35;;;;;;;5.82;4.13;;;13.30;99.90;;;;;;5036544;28;20282;-89
2021/10/30 01:05:01;;;;;;;6.35;4.50;;;13.30;99.80;;;;;;5036695;28;20025;-89
2021/10/30 01:07:27;;;;;;;6.72;4.28;;;13.20;99.70;;;;;;5035713;28;20045;-89
2021/10/30 01:09:53;;;;;;;5.90;4.70;;;13.20;99.70;;;;;;5035710;28;20116;-89
2021/10/30 01:12:19;;;;;;;6.22;4.57;;;13.20;99.70;;;;;;5036683;28;20485;-89
2021/10/30 01:14:45;;;;;;;5.95;4.70;;;13.20;99.70;;;;;;5053357;28;20029;-88
2021/10/30 01:17:11;;;;;;;7.65;4.80;;;13.20;99.60;;;;;;5052790;28;20059;-89
2021/10/30 01:19:37;;;;;;;6.43;4.40;;;13.10;99.70;;;;;;5020036;28;20544;-89
2021/10/30 01:22:03;;;;;;;6.47;4.80;;;13.20;99.70;;;;;;5053952;28;20051;-90
2021/10/30 01:24:30;;;;;;;6.38;4.93;;;13.10;99.70;;;;;;5024195;28;20029;-93
2021/10/30 01:26:56;;;;;;;7.85;5.13;;;13.10;99.70;;;;;;5046267;28;20054;-93
2021/10/30 01:29:22;;;;;;;8.32;5.75;;;13.10;99.70;;;;;;5056928;28;20055;-90
2021/10/30 01:31:49;;;;;;;7.18;5.00;;;13.10;99.70;;;;;;5053555;28;20075;-89
2021/10/30 01:34:16;;;;;;;7.95;5.05;;;13.10;99.70;;;;;;5052925;28;20013;-89
2021/10/30 01:36:41;;;;;;;7.40;5.55;;;13.00;99.70;;;;;;5032557;28;20021;-89
2021/10/30 01:39:09;;;;;;;6.68;4.95;;;13.00;99.80;;;;;;5052302;28;20374;-90
2021/10/30 01:41:36;;;;;;;6.82;4.93;;;13.00;99.80;;;;;;5051147;28;20033;-90
2021/10/30 01:44:03;;;;;;;6.85;5.10;;;13.00;99.90;;;;;;5016882;28;20060;-93
2021/10/30 01:46:29;;;;;;;7.43;5.18;;;13.00;99.90;;;;;;5047944;28;20024;-92
2021/10/30 01:48:54;;;;;;;8.32;5.18;;;13.00;99.90;;;;;;5036582;28;20017;-93
2021/10/30 01:51:21;;;;;;;6.38;4.95;;;13.00;99.90;;;;;;5025348;28;20068;-92
2021/10/30 01:53:47;;;;;;;6.30;4.65;;;13.00;99.90;;;;;;5049263;28;20017;-93
2021/10/30 01:56:14;;;;;;;8.45;5.60;;;13.00;99.90;;;;;;5033455;28;20087;-92
2021/10/30 01:58:40;;;;;;;8.63;5.30;;;13.00;99.90;;;;;;5044191;28;20466;-89
2021/10/30 02:01:09;;;;;;;7.97;5.57;;;13.00;99.90;;;;;;5033867;28;20029;-89
2021/10/30 02:03:35;;;;;;;7.43;5.25;;;13.00;99.90;;;;;;5050904;28;20033;-87
2021/10/30 02:06:03;;;;;;;6.38;5.10;;;13.00;99.90;;;;;;5035345;28;20040;-87
2021/10/30 02:08:29;;;;;;;6.78;4.93;;;13.00;99.90;;;;;;5045461;28;20026;-86
2021/10/30 02:10:56;;;;;;;6.57;5.22;;;13.00;99.90;;;;;;5044410;28;20037;-87
2021/10/30 02:13:22;;;;;;;7.78;5.40;;;13.00;99.90;;;;;;5051532;28;20013;-87
2021/10/30 02:15:49;;;;;;;7.20;5.00;;;13.00;99.90;;;;;;5047862;28;20068;-87
2021/10/30 02:18:14;;;;;;;9.27;5.07;;;13.00;99.90;;;;;;5030538;28;20113;-86
2021/10/30 02:20:40;;;;;;;7.57;4.97;;;13.00;99.90;;;;;;5033481;28;20098;-87
2021/10/30 02:23:07;;;;;;;6.60;4.63;;;13.00;99.90;;;;;;5033164;28;20025;-87
2021/10/30 02:25:34;;;;;;;6.53;4.72;;;13.00;99.90;;;;;;5050283;28;20021;-87
2021/10/30 02:28:00;;;;;;;5.85;4.43;;;13.00;99.90;;;;;;5049567;28;20471;-86
2021/10/30 02:30:26;;;;;;;8.07;5.15;;;13.00;99.90;;;;;;5057977;28;20060;-92
2021/10/30 02:32:52;;;;;;;5.70;4.20;;;13.00;99.90;;;;;;5073100;28;20049;-92
2021/10/30 02:35:18;;;;;;;6.85;4.50;;;13.00;99.90;;;;;;5051267;28;20480;-87
2021/10/30 02:37:43;;;;;;;6.60;4.53;;;13.00;99.90;;;;;;5049610;28;20355;-86
2021/10/30 02:40:16;;;;;;;7.25;4.45;;;13.00;99.90;;;;;;5021722;28;20053;-86
2021/10/30 02:42:41;;;;;;;6.47;4.63;;;13.00;99.90;;;;;;5054847;28;20086;-87
2021/10/30 02:45:08;;;;;;;6.22;4.40;;;13.00;99.90;;;;;;5054811;28;20025;-87
2021/10/30 02:47:34;;;;;;;6.20;4.60;;;13.00;99.90;;;;;;5018287;28;20044;-86
2021/10/30 02:50:00;;;;;;;7.72;4.35;;;13.00;99.90;;;;;;5036343;28;20021;-87
2021/10/30 02:52:25;;;;;;;6.13;4.93;;;13.00;99.90;;;;;;5020849;28;20025;-86
2021/10/30 02:54:52;;;;;;;5.25;4.10;;;13.00;99.90;;;;;;5029484;28;20022;-87
2021/10/30 02:57:18;;;;;;;8.23;4.55;;;13.00;99.90;;;;;;5049527;28;20430;-86
2021/10/30 02:59:44;;;;;;;6.35;4.40;;;13.00;99.90;;;;;;5038298;28;20052;-86
2021/10/30 03:02:10;;;;;;;6.15;4.45;;;13.00;99.90;;;;;;5043527;28;20083;-86
2021/10/30 03:05:13;;;;;;;7.45;4.35;;;13.00;99.90;;;;;;5050705;28;20026;-93
2021/10/30 03:07:39;;;;;;;5.95;4.32;;;13.00;99.90;;;;;;5047806;28;20020;-93
2021/10/30 03:10:05;;;;;;;6.10;3.97;;;13.00;99.90;;;;;;5044709;28;20029;-93
2021/10/30 03:12:31;;;;;;;8.30;4.40;;;13.00;99.90;;;;;;5039362;28;20429;-93
2021/10/30 03:14:57;;;;;;;6.78;4.00;;;13.00;99.90;;;;;;5022828;28;20466;-93
2021/10/30 03:17:23;;;;;;;5.63;4.03;;;13.00;99.90;;;;;;5041165;28;20029;-92
2021/10/30 03:19:48;;;;;;;9.70;4.65;;;13.00;99.90;;;;;;5050278;28;20537;-92
2021/10/30 03:22:14;;;;;;;5.47;3.45;;;13.00;99.90;;;;;;5034643;28;20033;-92
2021/10/30 03:24:42;;;;;;;6.03;3.90;;;12.90;99.90;;;;;;5023471;28;20033;-90
2021/10/30 03:27:08;;;;;;;5.93;3.88;;;12.90;99.90;;;;;;5026221;28;20026;-90
2021/10/30 03:29:36;;;;;;;6.85;4.30;;;12.90;99.90;;;;;;5037055;28;20029;-89
2021/10/30 03:32:02;;;;;;;7.05;4.53;;;12.90;99.90;;;;;;5038113;28;20031;-89
2021/10/30 03:34:27;;;;;;;7.57;4.72;;;12.90;99.90;;;;;;5035839;28;20128;-90
2021/10/30 03:36:53;;;;;;;7.80;5.13;;;12.90;99.90;;;;;;5021565;28;20043;-89
2021/10/30 03:39:19;;;;;;;9.05;6.13;;;12.90;99.90;;;;;;5042336;28;20033;-89
2021/10/30 03:41:45;;;;;;;7.53;5.07;;;12.90;99.90;;;;;;5037926;28;20048;-90
2021/10/30 03:44:11;;;;;;;6.88;4.80;;;12.90;99.90;;;;;;5030658;28;20070;-89
2021/10/30 03:46:37;;;;;;;7.75;5.18;;;12.90;99.90;;;;;;5035980;28;20044;-90
2021/10/30 03:49:02;;;;;;;7.72;4.90;;;13.00;99.90;;;;;;5021355;28;20112;-90
2021/10/30 03:51:28;;;;;;;8.57;5.65;;;13.00;99.90;;;;;;5019623;28;20029;-89
2021/10/30 03:53:54;;;;;;;8.13;5.85;;;13.00;99.90;;;;;;5037657;28;20390;-89
2021/10/30 03:56:19;;;;;;;8.82;5.57;;;13.00;99.90;;;;;;5020891;28;20110;-89
2021/10/30 03:58:45;;;;;;;8.90;5.47;;;13.00;99.90;;;;;;5034379;28;20386;-93
2021/10/30 04:01:11;;;;;;;7.68;6.00;;;13.00;99.90;;;;;;5017787;28;20395;-93
2021/10/30 04:03:36;;;;;;;10.90;6.22;;;13.00;99.90;;;;;;5037774;28;20079;-93
2021/10/30 04:06:02;;;;;;;8.00;5.90;;;13.00;99.90;;;;;;5037876;28;20035;-93
2021/10/30 04:08:29;;;;;;;8.93;6.28;;;13.00;99.90;;;;;;5037750;28;20033;-92
2021/10/30 04:10:55;;;;;;;7.90;5.75;;;13.00;99.90;;;;;;5035838;28;20029;-92
2021/10/30 04:13:21;;;;;;;9.52;6.22;;;13.00;99.90;;;;;;5037687;28;20040;-92
2021/10/30 04:15:47;;;;;;;8.57;5.80;;;13.00;99.90;;;;;;5038041;28;20037;-93
2021/10/30 04:18:13;;;;;;;10.50;6.00;;;13.00;99.90;;;;;;5021410;28;20039;-92
2021/10/30 04:20:38;;;;;;;8.88;6.18;;;13.00;99.90;;;;;;5036689;28;20041;-92
2021/10/30 04:23:04;;;;;;;7.80;6.15;;;13.00;99.90;;;;;;5034448;28;20021;-93
2021/10/30 04:25:30;;;;;;;8.45;6.43;;;13.00;99.90;;;;;;5010326;28;20028;-86
2021/10/30 04:27:55;;;;;;;9.13;6.60;;;13.00;99.90;;;;;;5020061;28;20363;-85
2021/10/30 04:30:21;;;;;;;9.52;6.90;;;13.00;99.90;;;;;;5020160;28;20013;-85
2021/10/30 04:32:46;;;;;;;9.60;6.85;;;13.00;99.90;;;;;;5036474;28;20406;-86
2021/10/30 04:35:12;;;;;;;9.30;6.75;;;13.00;99.90;;;;;;5053035;28;20155;-89
2021/10/30 04:37:38;;;;;;;10.93;7.47;;;13.00;99.90;;;;;;5036875;28;20029;-89
2021/10/30 04:40:05;;;;;;;9.95;7.45;;;13.00;99.90;;;;;;5051139;28;20124;-89
2021/10/30 04:42:31;;;;;;;10.65;8.20;;;13.00;99.90;;;;;;5010605;28;20036;-89
2021/10/30 04:44:56;;;;;;;11.68;8.50;;;13.00;99.90;;;;;;5020499;28;20029;-89
2021/10/30 04:47:22;;;;;;;10.88;7.53;;;13.00;99.90;;;;;;5026769;28;20017;-89
2021/10/30 04:49:49;;;;;;;11.65;8.45;;;13.00;99.90;;;;;;5025885;28;20054;-89
2021/10/30 04:52:15;;;;;;;10.60;8.07;;;12.90;99.90;;;;;;5022094;28;20017;-90
2021/10/30 04:54:42;;;;;;;11.20;8.27;;;12.90;99.90;;;;;;5053551;28;20053;-90
2021/10/30 04:57:08;;;;;;;13.25;8.65;;;12.90;99.90;;;;;;5036972;28;20032;-89
2021/10/30 04:59:35;;;;;;;12.93;8.35;;;12.90;99.90;;;;;;5044179;28;20021;-89
2021/10/30 05:02:01;;;;;;;12.68;8.48;;;12.90;99.90;;;;;;5036556;28;20041;-89
2021/10/30 05:04:27;;;;;;;10.65;7.70;;;12.90;99.90;;;;;;5036585;28;20470;-89
2021/10/30 05:06:52;;;;;;;14.05;8.57;;;12.90;99.90;;;;;;5035987;28;20051;-89
2021/10/30 05:09:18;;;;;;;10.93;7.60;;;12.80;99.90;;;;;;5030760;28;20462;-89
2021/10/30 05:11:44;;;;;;;10.85;8.30;;;12.80;99.90;;;;;;5036376;28;20028;-88
2021/10/30 05:14:09;;;;;;;11.75;7.97;;;12.80;99.90;;;;;;5036430;28;20021;-89
2021/10/30 05:16:41;;;;;;;13.02;8.63;;;12.80;99.90;;;;;;5053336;28;20025;-89
2021/10/30 05:19:07;;;;;;;11.05;7.75;;;12.80;99.80;;;;;;5016842;28;20505;-88
2021/10/30 05:21:32;;;;;;;14.13;8.75;;;12.70;99.90;;;;;;5021520;28;20029;-88
2021/10/30 05:23:58;;;;;;;10.48;7.63;;;12.70;99.90;;;;;;5047233;28;20057;-88
2021/10/30 05:26:24;;;;;;;11.23;7.68;;;12.70;99.90;;;;;;5030283;28;20030;-88
2021/10/30 05:28:51;;;;;;;10.80;7.63;;;12.70;99.90;;;;;;5052924;28;20024;-88
2021/10/30 05:31:18;;;;;;;14.25;8.57;;;12.70;99.90;;;;;;5036526;28;20051;-89
2021/10/30 05:33:44;;;;;;;17.48;8.10;;;12.70;99.90;;;;;;5051399;28;20420;-89
2021/10/30 05:36:12;;;;;;;9.15;6.47;;;12.70;99.90;;;;;;5035810;28;20025;-86
2021/10/30 05:38:44;;;;;;;11.90;6.90;;;12.70;99.90;;;;;;5019072;28;20029;-86
2021/10/30 05:41:10;;;;;;;13.43;8.02;;;12.70;99.90;;;;;;5052098;28;20048;-86
2021/10/30 05:43:38;;;;;;;11.65;6.68;;;12.60;99.90;;;;;;5035769;28;20057;-86
2021/10/30 05:46:05;;;;;;;11.00;7.22;;;12.60;99.90;;;;;;5035633;28;20028;-86
2021/10/30 05:48:31;;;;;;;13.90;7.97;;;12.60;99.90;;;;;;5032733;28;20119;-86
2021/10/30 05:50:57;;;;;;;13.40;7.57;;;12.60;99.90;;;;;;5040788;28;20063;-86
2021/10/30 05:53:22;;;;;;;10.95;6.97;;;12.60;99.90;;;;;;5034875;28;20548;-86
2021/10/30 05:55:48;;;;;;;9.25;6.50;;;12.60;99.90;;;;;;5037324;28;20501;-86
2021/10/30 05:58:13;;;;;;;9.30;6.18;;;12.60;99.90;;;;;;5019379;28;20061;-86
2021/10/30 06:00:39;;;;;;;10.35;6.75;;;12.60;99.90;;;;;;5038231;28;20029;-87
2021/10/30 06:03:05;;;;;;;10.13;7.05;;;12.60;99.90;;;;;;5020945;28;20029;-86
2021/10/30 06:05:30;;;;;;;9.02;6.70;;;12.60;99.90;;;;;;5020176;28;20116;-87
2021/10/30 06:07:57;;;;;;;14.27;7.40;;;12.60;99.90;;;;;;5038079;28;20059;-86
2021/10/30 06:10:22;;;;;;;12.98;7.07;;;12.60;99.90;;;;;;5038477;28;20100;-87
2021/10/30 06:12:48;;;;;;;12.35;7.43;;;12.60;99.90;;;;;;5024911;28;20129;-86
2021/10/30 06:15:15;;;;;;;9.95;6.68;;;12.60;99.90;;;;;;5019003;28;20029;-87
2021/10/30 06:17:40;;;;;;;12.98;8.32;;;12.60;99.90;;;;;;5049646;28;20064;-86
2021/10/30 06:20:07;;;;;;;11.07;7.32;;;12.60;99.90;;;;;;5029100;28;20025;-86
2021/10/30 06:22:33;;;;;;;11.73;7.32;;;12.60;99.90;;;;;;5038765;28;20040;-86
2021/10/30 06:24:58;;;;;;;11.32;7.03;;;12.50;99.90;;;;;;5030971;28;20467;-86
2021/10/30 06:27:24;;;;;;;13.02;8.10;;;12.60;99.90;;;;;;5049344;28;20048;-86
2021/10/30 06:29:50;;;;;;;12.50;8.70;;;12.50;99.90;;;;;;5018872;28;20014;-86
2021/10/30 06:32:16;;;;;;;12.23;8.43;;;12.50;99.90;;;;;;5038845;28;20033;-86
2021/10/30 06:34:41;;;;;;;11.45;7.22;;;12.50;99.90;;;;;;5055056;28;20036;-87
2021/10/30 06:37:07;;;;;;;11.77;8.00;;;12.50;99.90;;;;;;5038896;28;20033;-89
2021/10/30 06:39:33;;;;;;;12.65;8.63;;;12.40;99.90;;;;;;5055107;28;20033;-88
2021/10/30 06:41:59;;;;;;;11.68;7.97;;;12.40;99.90;;;;;;5038932;28;20159;-87
2021/10/30 06:44:27;;;;;;;12.23;8.45;;;12.40;99.90;;;;;;5022754;28;20547;-88
2021/10/30 06:46:54;;;;;;;11.43;8.23;;;12.40;99.90;;;;;;5022273;28;20075;-89
2021/10/30 06:49:20;;;;;;;14.23;8.75;;;12.40;99.90;;;;;;5022509;28;20033;-88
2021/10/30 06:51:47;;;;;;;13.10;8.73;;;12.30;99.90;;;;;;5036203;28;20013;-89
2021/10/30 06:54:13;;;;;;;11.65;8.32;;;12.40;99.90;;;;;;5022323;28;20029;-89
2021/10/30 06:56:40;;;;;;;13.30;8.30;;;12.30;99.90;;;;;;5004231;28;20036;-89
2021/10/30 06:59:07;;;;;;;14.38;9.25;;;12.30;99.90;;;;;;5038570;28;20036;-89
2021/10/30 07:01:35;;;;;;;13.77;8.38;;;12.40;99.90;;;;;;5021786;28;20025;-89
2021/10/30 07:04:02;;;;;;;14.02;9.45;;;12.30;99.90;;;;;;5016766;28;20387;-89
2021/10/30 07:06:27;;;;;;;14.68;9.43;;;12.30;99.90;;;;;;5013700;28;20029;-89
2021/10/30 07:08:55;;;;;;;14.45;9.82;;;12.30;99.90;;;;;;5037919;28;20024;-87
2021/10/30 07:11:22;;;;;;;12.52;9.65;;;12.30;99.90;;;;;;5038622;28;20155;-86
2021/10/30 07:13:48;;;;;;;12.90;9.02;;;12.30;99.90;;;;;;5001483;28;20026;-86
2021/10/30 07:16:15;;;;;;;14.88;9.82;;;12.30;99.90;;;;;;5021415;28;20031;-86
2021/10/30 07:18:41;;;;;;;16.02;9.77;;;12.30;99.90;;;;;;5021808;28;20028;-86
2021/10/30 07:21:07;;;;;;;15.90;10.00;;;12.30;99.90;;;;;;5008842;28;20117;-87
2021/10/30 07:23:33;;;;;;;14.93;10.27;;;12.30;99.90;;;;;;5012979;28;20032;-86
2021/10/30 07:25:58;;;;;;;17.58;11.00;;;12.20;99.90;;;;;;5004884;28;20028;-86
2021/10/30 07:28:24;;;;;;;13.32;9.25;;;12.30;99.90;;;;;;5020704;28;20021;-86
2021/10/30 07:30:50;;;;;;;15.82;9.70;;;12.30;99.90;;;;;;5005109;28;20025;-88
2021/10/30 07:33:15;;;;;;;17.63;10.23;;;12.30;99.90;;;;;;5001891;28;20030;-89
2021/10/30 07:35:41;;;;;;;17.88;10.95;;;12.30;99.90;;;;;;5005371;28;20025;-89
2021/10/30 07:38:07;;;;;;;16.05;10.32;;;12.30;99.90;;;;;;5021265;28;20025;-89
2021/10/30 07:40:35;;;;;;;14.43;10.20;;;12.30;99.90;;;;;;5015130;28;20171;-87
2021/10/30 07:43:01;;;;;;;14.32;8.73;;;12.30;99.90;;;;;;5042279;28;20060;-87
2021/10/30 07:45:28;;;;;;;14.93;10.50;;;12.30;99.90;;;;;;5046912;28;20478;-92
2021/10/30 07:47:55;;;;;;;17.88;10.20;;;12.30;99.90;;;;;;5038252;28;20029;-93
2021/10/30 07:50:22;;;;;;;17.45;10.45;;;12.30;99.90;;;;;;5037531;28;20021;-92
2021/10/30 07:52:48;;;;;;;14.18;9.07;;;12.30;99.90;;;;;;5043454;28;20024;-92
2021/10/30 07:55:14;;;;;;;18.05;10.45;;;12.30;99.90;;;;;;5032244;28;20029;-93
2021/10/30 07:57:40;;;;;;;16.20;8.93;;;12.30;99.90;;;;;;5048409;28;20051;-93
2021/10/30 08:00:08;;;;;;;14.00;8.98;;;12.30;99.90;;;;;;5034820;28;20612;-93
2021/10/30 08:02:34;;;;;;;15.75;9.40;;;12.40;99.90;;;;;;5046989;28;20033;-94
2021/10/30 08:05:00;;;;;;;15.77;8.70;;;12.40;99.90;;;;;;5037204;28;20029;-86
2021/10/30 08:07:26;;;;;;;16.48;8.90;;;12.40;99.90;;;;;;5037300;28;20037;-86
2021/10/30 08:09:52;;;;;;;16.13;9.38;;;12.40;99.90;;;;;;5037223;28;20096;-87
2021/10/30 08:12:17;;;;;;;15.93;9.30;;;12.40;99.90;;;;;;5020870;28;20434;-86
2021/10/30 08:14:43;;;;;;;14.88;9.52;;;12.40;99.90;;;;;;5037339;28;20075;-88
2021/10/30 08:17:09;;;;;;;17.08;9.65;;;12.30;99.90;;;;;;5054089;28;20032;-90
2021/10/30 08:19:35;;;;;;;15.90;8.73;;;12.40;99.90;;;;;;5037517;28;20051;-89
2021/10/30 08:22:02;;;;;;;13.75;9.00;;;12.40;99.90;;;;;;5037370;28;20033;-89
2021/10/30 08:24:28;;;;;;;14.30;8.48;;;12.40;99.90;;;;;;5035486;28;20021;-88
2021/10/30 08:26:55;;;;;;;13.48;7.90;;;12.40;99.90;;;;;;5032908;28;20028;-93
2021/10/30 08:29:21;;;;;;;12.55;7.78;;;12.50;99.90;;;;;;5018254;28;20562;-93
2021/10/30 08:31:47;;;;;;;16.55;9.02;;;12.40;99.90;;;;;;5037862;28;20041;-94
2021/10/30 08:34:13;;;;;;;12.70;7.82;;;12.40;99.90;;;;;;5017462;28;20029;-89
2021/10/30 08:36:39;;;;;;;14.40;7.95;;;12.50;99.90;;;;;;5036674;28;20052;-89
2021/10/30 08:39:05;;;;;;;12.82;7.70;;;12.40;99.90;;;;;;5018981;28;20120;-89
2021/10/30 08:41:31;;;;;;;14.98;8.05;;;12.40;99.90;;;;;;5051879;28;20427;-93
2021/10/30 08:43:57;;;;;;;14.43;7.72;;;12.50;99.90;;;;;;5043986;28;20036;-91
2021/10/30 08:46:23;;;;;;;14.55;7.78;;;12.40;99.90;;;;;;5032813;28;20021;-90
2021/10/30 08:48:52;;;;;;;12.23;7.45;;;12.50;99.90;;;;;;5028654;28;20363;-91
2021/10/30 08:51:17;;;;;;;15.13;7.70;;;12.50;99.90;;;;;;5053086;28;20027;-90
2021/10/30 08:53:43;;;;;;;11.70;7.07;;;12.50;99.90;;;;;;5036765;28;20028;-87
2021/10/30 08:56:09;;;;;;;13.02;7.32;;;12.50;99.90;;;;;;5053034;28;20086;-87
2021/10/30 08:58:35;;;;;;;12.98;7.20;;;12.50;99.90;;;;;;5020077;28;20059;-87
2021/10/30 09:01:07;;;;;;;12.38;6.60;;;12.50;99.90;;;;;;5052855;28;20021;-87
2021/10/30 09:03:33;;;;;;;13.00;7.45;;;12.60;99.90;;;;;;5052790;28;20025;-88
2021/10/30 09:06:01;;;;;;;14.45;7.65;;;12.60;99.90;;;;;;5036304;28;20059;-87
2021/10/30 09:08:28;;;;;;;12.93;6.93;;;12.60;99.90;;;;;;5054355;28;20024;-87
2021/10/30 09:10:56;;;;;;;13.98;7.47;;;12.60;99.90;;;;;;5044632;28;20017;-88
2021/10/30 09:13:27;;;;;;;13.57;7.25;;;12.60;99.90;;;;;;5043088;28;20028;-88
2021/10/30 09:15:53;;;;;;;12.32;6.57;;;12.60;99.90;;;;;;5032267;28;20029;-87
2021/10/30 09:18:31;;;;;;;9.88;6.22;;;12.60;99.90;;;;;;5049274;28;20044;-87
2021/10/30 09:21:02;;;;;;;10.38;6.40;;;12.60;99.90;;;;;;5045991;28;20182;-87
2021/10/30 09:23:30;;;;;;;11.88;6.22;;;12.60;99.90;;;;;;5052365;28;20131;-87
2021/10/30 09:26:02;;;;;;;12.25;7.20;;;12.60;99.90;;;;;;5057105;28;20548;-86
2021/10/30 09:28:36;;;;;;;14.48;8.20;;;12.60;99.90;;;;;;5068126;28;20017;-86
2021/10/30 09:31:08;;;;;;;11.07;6.72;;;12.70;99.90;;;;;;5062369;28;20029;-87
2021/10/30 09:33:36;;;;;;;10.60;6.22;;;12.70;99.90;;;;;;5056506;28;20020;-87
2021/10/30 09:36:13;;;;;;;13.18;7.70;;;12.70;99.90;;;;;;5053681;28;20052;-82
2021/10/30 09:38:45;;;;;;;12.15;6.90;;;12.70;99.90;;;;;;5041446;28;20031;-82
2021/10/30 09:41:25;;;;;;;10.55;6.63;;;12.70;99.90;;;;;;5059717;28;20075;-83
2021/10/30 09:44:18;;;;;;;10.30;6.38;;;12.70;99.90;;;;;;5061066;28;20025;-82
2021/10/30 09:46:43;;;;;;;10.48;6.18;;;12.70;99.90;;;;;;5074662;28;20025;-83
2021/10/30 09:49:15;;;;;;;10.73;6.40;;;12.80;99.90;;;;;;5059124;28;20104;-83
2021/10/30 09:51:49;;;;;;;11.65;6.28;;;12.80;99.90;;;;;;5056266;28;20056;-88
2021/10/30 09:54:40;;;;;;;10.43;6.72;;;12.80;99.90;;;;;;5039894;28;20029;-87
2021/10/30 09:57:07;;;;;;;10.73;5.70;;;12.90;99.90;;;;;;5053222;28;20040;-87
2021/10/30 09:59:37;;;;;;;10.23;5.93;;;12.90;99.90;;;;;;5036460;28;20029;-87
2021/10/30 10:02:05;;;;;;;11.60;6.35;;;12.90;99.90;;;;;;5009619;28;20021;-87
2021/10/30 10:04:31;;;;;;;10.20;6.35;;;12.90;99.90;;;;;;5057390;28;20029;-87
2021/10/30 10:06:59;;;;;;;13.20;5.97;;;12.90;99.90;;;;;;5039707;28;20033;-87
2021/10/30 10:09:25;;;;;;;12.93;6.68;;;12.90;99.90;;;;;;5050029;28;20028;-87
2021/10/30 10:11:52;;;;;;;11.30;6.35;;;12.90;99.90;;;;;;5050104;28;20025;-87
2021/10/30 10:14:22;;;;;;;10.02;6.45;;;13.00;99.90;;;;;;5057727;28;20104;-87
2021/10/30 10:16:52;;;;;;;9.80;5.95;;;13.00;99.90;;;;;;5036649;28;20029;-87
2021/10/30 10:19:22;;;;;;;12.37;6.00;;;12.90;99.90;;;;;;5035541;28;20029;-87
2021/10/30 10:21:49;;;;;;;10.70;5.63;;;12.90;99.90;;;;;;5057338;28;20027;-87
2021/10/30 10:24:29;;;;;;;9.60;5.40;;;12.90;99.90;;;;;;5043840;28;20033;-88
2021/10/30 10:26:57;;;;;;;9.75;6.15;;;12.90;99.90;;;;;;5045141;28;20029;-89
2021/10/30 10:29:35;;;;;;;12.25;7.18;;;13.00;99.90;;;;;;5043198;28;20028;-87
2021/10/30 10:32:23;;;;;;;11.30;6.47;;;12.90;99.90;;;;;;5056239;28;20032;-87
2021/10/30 10:34:49;;;;;;;10.15;5.55;;;13.00;99.90;;;;;;5045315;28;20021;-88
2021/10/30 10:37:17;;;;;;;10.13;5.97;;;13.00;99.90;;;;;;5050151;28;20056;-87
2021/10/30 10:39:47;;;;;;;9.40;6.10;;;13.00;99.90;;;;;;5038356;28;20387;-87
2021/10/30 10:42:37;;;;;;;11.82;6.10;;;13.00;99.90;;;;;;5047610;28;20445;-88
2021/10/30 10:45:16;;;;;;;8.23;5.75;;;13.00;99.90;;;;;;5046857;28;20484;-86
2021/10/30 10:47:43;;;;;;;12.15;6.10;;;13.00;99.90;;;;;;5042008;28;20025;-89
2021/10/30 10:50:10;;;;;;;8.07;5.25;;;13.10;99.90;;;;;;5068988;28;20070;-89
2021/10/30 10:52:35;;;;;;;11.00;6.45;;;13.10;99.90;;;;;;5045333;28;20030;-88
2021/10/30 10:55:06;;;;;;;13.27;6.60;;;13.10;99.90;;;;;;5025229;23;20049;-88
2021/10/30 10:57:32;;;;;;;9.73;5.72;;;13.10;99.90;;;;;;5022060;28;20022;-88
2021/10/30 10:59:58;;;;;;;13.82;6.25;;;13.10;99.90;;;;;;5039054;28;20100;-89
2021/10/30 11:02:29;;;;;;;12.02;6.55;;;13.10;99.90;;;;;;5055782;28;20032;-88
2021/10/30 11:05:10;;;;;;;11.90;6.82;;;13.10;99.90;;;;;;5034463;28;20058;-89
2021/10/30 11:07:44;;;;;;;11.90;6.40;;;13.10;99.90;;;;;;5052381;28;20037;-89
2021/10/30 11:10:23;;;;;;;12.60;5.88;;;13.10;99.90;;;;;;5055816;28;20036;-89
2021/10/30 11:13:09;;;;;;;13.32;6.93;;;13.10;99.90;;;;;;5051365;28;20056;-89
2021/10/30 11:15:56;;;;;;;12.15;6.68;;;13.20;99.90;;;;;;4999315;28;20034;-89
2021/10/30 11:18:34;;;;;;;12.43;6.95;;;13.20;99.90;;;;;;5045677;28;20021;-88
2021/10/30 11:21:20;;;;;;;11.65;6.03;;;13.20;99.90;;;;;;5055302;28;20115;-89
2021/10/30 11:23:51;;;;;;;9.70;5.88;;;13.20;99.90;;;;;;5055343;28;20025;-88
2021/10/30 11:26:23;;;;;;;13.95;6.50;;;13.20;99.90;;;;;;5055183;28;20031;-88
2021/10/30 11:28:50;;;;;;;11.50;6.25;;;13.20;99.90;;;;;;5055303;28;20045;-88
2021/10/30 11:31:34;;;;;;;10.73;6.18;;;13.20;99.90;;;;;;5052007;28;20541;-88
2021/10/30 11:34:03;;;;;;;12.93;6.10;;;13.20;99.90;;;;;;5015862;28;20022;-89
2021/10/30 11:36:31;;;;;;;10.43;5.93;;;13.20;99.90;;;;;;5015749;28;20040;-89
2021/10/30 11:38:58;;;;;;;8.85;5.45;;;13.20;99.90;;;;;;5020184;28;20037;-88
2021/10/30 11:41:35;;;;;;;9.95;5.05;;;13.30;99.90;;;;;;5018448;28;20052;-88
2021/10/30 11:44:05;;;;;;;10.95;5.47;;;13.30;99.90;;;;;;5018431;28;20120;-89
2021/10/30 11:46:31;;;;;;;11.45;6.15;;;13.30;99.90;;;;;;5043764;28;20072;-88
2021/10/30 11:49:06;;;;;;;11.32;5.63;;;13.30;99.90;;;;;;5001746;28;20042;-88
2021/10/30 11:51:35;;;;;;;9.15;5.15;;;13.40;99.90;;;;;;5018178;28;20095;-87
2021/10/30 11:54:01;;;;;;;11.35;6.40;;;13.40;99.90;;;;;;5033436;28;20025;-87
2021/10/30 11:56:29;;;;;;;10.57;5.40;;;13.40;99.90;;;;;;5046404;28;20080;-88
2021/10/30 11:58:59;;;;;;;11.38;5.00;;;13.40;99.90;;;;;;5022712;28;20030;-88
2021/10/30 12:01:35;;;;;;;10.88;5.55;;;13.40;99.90;;;;;;5030341;28;20485;-87
2021/10/30 12:04:22;;;;;;;11.70;5.35;;;13.40;99.90;;;;;;5033386;28;20025;-87
2021/10/30 12:06:57;;;;;;;7.78;5.00;;;13.50;99.90;;;;;;5033784;28;20509;-87
2021/10/30 12:09:30;;;;;;;9.18;4.78;;;13.50;99.90;;;;;;5033311;28;20021;-87
2021/10/30 12:12:01;;;;;;;10.20;4.70;;;13.50;99.90;;;;;;5019986;28;20022;-87
2021/10/30 12:14:32;;;;;;;7.75;4.60;;;13.50;99.90;;;;;;5033897;28;20025;-86
2021/10/30 12:17:03;;;;;;;10.48;5.30;;;13.50;99.90;;;;;;5034393;28;20060;-87
2021/10/30 12:19:32;;;;;;;9.02;4.97;;;13.60;99.90;;;;;;5033131;28;20028;-86
2021/10/30 12:22:10;;;;;;;10.25;5.78;;;13.60;99.90;;;;;;5033147;28;20057;-85
2021/10/30 12:24:39;;;;;;;8.45;4.90;;;13.60;99.90;;;;;;5033564;28;20018;-86
2021/10/30 12:27:07;;;;;;;9.48;4.40;;;13.60;99.90;;;;;;5033596;28;20014;-86
2021/10/30 12:29:41;;;;;;;7.32;4.72;;;13.60;99.90;;;;;;5026335;28;20044;-85
2021/10/30 12:32:12;;;;;;;12.35;5.72;;;13.70;99.90;;;;;;5033094;28;20188;-86
2021/10/30 12:34:40;;;;;;;9.85;5.65;;;13.70;99.90;;;;;;5006498;28;20041;-86
2021/10/30 12:37:11;;;;;;;8.82;5.13;;;13.80;99.90;;;;;;5048053;28;20374;-86
2021/10/30 12:39:39;;;;;;;12.23;5.38;;;13.80;99.90;;;;;;5049341;28;20052;-85
2021/10/30 12:42:08;;;;;;;8.63;4.95;;;13.80;99.90;;;;;;5034991;28;20013;-86
2021/10/30 12:44:36;;;;;;;6.47;3.97;;;13.80;99.90;;;;;;5034683;28;20072;-88